Strona główna
METAR-TAF:

METAR-TAF

Lotnisko :

Platforma wiertnicza

Euro, Holandia

Szerokość geograficzna: 51-59-52N, Długość geograficzna: 3-16-30E, wysokość: 18 m

Aktualna obserwacja pogody

Raport powstał 44 minut temu, godzina 06:55 UTC
Wiatr 27 kt od zachodnio-północny zachód
Temperatura 5°C
Wilgotność 75%
Ciśnienie 996 hPa
Widzialność 10 km lub więcej

METAR: EHSA 260655Z AUTO 29027KT 9999 ///////// 05/01 Q0996 W06/H24

czas: 08:39 (07:39 UTC)


TAF: brakujący

Obserwacja i prognoza pogody dla ponad 4000 lotnisk (raport METAR i TAF).

Dostępne stacje oznaczono żółtymi i czerwonymi punktami na mapie.

Najedź kursorem aby zobaczyć nazwę stacji.

Kliknij aby zobaczyć obserwacje i prognozy pogody.

Aby zmienić mapę: kliknij na zielony przycisk z czarnym krzyżykiem, aby powiększyć; na zielony przycisk z myślnikiem, aby pomniejszyć; na zielone strzałki, aby przejść do map sąsiednich.


METAR-TAF: